Time;durP1;ratioP1;P1;durP2;ratioP2;P2;SDS_P1;SDS_P2;PMS_P1;PMS_P2;Temp;Humidity;BMP_temperature;BMP_pressure;BME280_temperature;BME280_humidity;BME280_pressure;Samples;Min_cycle;Max_cycle;Signal;HPM_P1;HPM_P2
2022/10/07 00:00:36;;;;;;;32.25;15.18;;;;;;;13.59;50.36;100748.38;3144924;28;20123;-64
2022/10/07 00:02:08;;;;;;;25.77;13.07;;;;;;;13.56;50.21;100750.28;3144202;28;20342;-64
2022/10/07 00:03:40;;;;;;;32.53;12.05;;;;;;;13.54;50.57;100752.13;3144578;28;20398;-64
2022/10/07 00:05:12;;;;;;;23.55;9.75;;;;;;;13.49;50.64;100754.06;3144580;28;20103;-63
2022/10/07 00:06:44;;;;;;;22.38;9.80;;;;;;;13.38;50.72;100741.44;3144558;28;20048;-64
2022/10/07 00:08:15;;;;;;;21.73;8.63;;;;;;;13.40;51.02;100750.09;3144188;28;20127;-64
2022/10/07 00:09:48;;;;;;;18.48;7.53;;;;;;;13.37;50.95;100752.84;3144690;28;20044;-64
2022/10/07 00:11:22;;;;;;;26.08;7.80;;;;;;;13.35;50.64;100752.03;3144080;28;20136;-64
2022/10/07 00:12:52;;;;;;;18.58;6.68;;;;;;;13.32;51.00;100752.19;3144542;28;20064;-64
2022/10/07 00:14:24;;;;;;;21.23;7.45;;;;;;;13.29;50.81;100754.91;3144077;28;20799;-64
2022/10/07 00:16:02;;;;;;;18.13;7.85;;;;;;;13.29;51.12;100761.00;3144348;28;20071;-64
2022/10/07 00:17:34;;;;;;;21.08;8.57;;;;;;;13.29;51.03;100755.75;3144283;28;20437;-64
2022/10/07 00:19:11;;;;;;;18.10;7.63;;;;;;;13.28;51.16;100761.91;3144565;28;20053;-63
2022/10/07 00:20:43;;;;;;;18.08;7.38;;;;;;;13.26;50.88;100758.50;3144294;28;20482;-64
2022/10/07 00:22:15;;;;;;;14.95;6.25;;;;;;;13.23;50.79;100757.75;3143871;28;20045;-64
2022/10/07 00:23:48;;;;;;;16.25;7.75;;;;;;;13.23;50.72;100755.97;3144447;28;20102;-63
2022/10/07 00:25:20;;;;;;;19.58;7.40;;;;;;;13.24;50.97;100756.81;3143652;28;20078;-63
2022/10/07 00:26:51;;;;;;;16.33;7.53;;;;;;;13.18;51.08;100747.47;3144173;28;20139;-64
2022/10/07 00:28:24;;;;;;;17.67;7.32;;;;;;;13.23;51.32;100750.75;3143836;28;20191;-63
2022/10/07 00:29:56;;;;;;;22.40;8.40;;;;;;;13.21;51.39;100760.41;3136803;28;20064;-63
2022/10/07 00:31:29;;;;;;;18.63;6.82;;;;;;;13.21;51.21;100769.09;3135847;28;20067;-63
2022/10/07 00:33:01;;;;;;;23.17;8.05;;;;;;;13.19;51.54;100764.84;3142373;28;20056;-63
2022/10/07 00:34:35;;;;;;;21.13;7.40;;;;;;;13.18;51.27;100766.63;3143999;28;20493;-63
2022/10/07 00:36:08;;;;;;;15.82;6.68;;;;;;;13.16;51.27;100772.81;3144393;28;20104;-63
2022/10/07 00:37:41;;;;;;;22.88;8.38;;;;;;;13.15;51.76;100769.34;3144675;28;20044;-63
2022/10/07 00:39:15;;;;;;;18.15;8.05;;;;;;;13.14;51.67;100772.91;3144156;28;20389;-63
2022/10/07 00:40:45;;;;;;;;;;;;;;;13.09;51.60;100771.38;3144885;28;20044;-63
2022/10/07 00:42:17;;;;;;;18.17;7.90;;;;;;;13.07;51.54;100770.56;3144464;28;19928;-64
2022/10/07 00:43:49;;;;;;;16.67;6.85;;;;;;;13.06;51.61;100764.50;3144206;28;20059;-63
2022/10/07 00:45:20;;;;;;;18.83;7.13;;;;;;;13.02;51.73;100755.09;3144063;28;20055;-64
2022/10/07 00:46:54;;;;;;;17.98;7.30;;;;;;;13.08;51.70;100759.22;3140521;28;20057;-64
2022/10/07 00:48:26;;;;;;;;;;;;;;;13.03;51.79;100758.56;3144868;28;20056;-64
2022/10/07 00:50:04;;;;;;;15.75;6.68;;;;;;;13.02;52.06;100764.72;3144312;28;19931;-64
2022/10/07 00:51:38;;;;;;;12.68;5.47;;;;;;;12.91;52.26;100755.50;3143939;28;20056;-64
2022/10/07 00:53:09;;;;;;;15.95;5.10;;;;;;;12.95;51.93;100764.06;3144047;28;20056;-64
2022/10/07 00:54:41;;;;;;;16.48;5.25;;;;;;;12.90;51.85;100758.19;3139305;28;20053;-64
2022/10/07 00:56:15;;;;;;;17.52;5.13;;;;;;;12.87;52.19;100758.31;3136670;28;20472;-64
2022/10/07 00:57:48;;;;;;;11.38;5.50;;;;;;;12.75;52.37;100764.88;3144265;28;20056;-64
2022/10/07 00:59:21;;;;;;;;;;;;;;;12.62;52.92;100761.00;3143732;28;20104;-64
2022/10/07 01:00:53;;;;;;;12.93;4.47;;;;;;;12.56;52.92;100763.88;3144225;28;20351;-64
2022/10/07 01:02:26;;;;;;;13.00;5.50;;;;;;;12.53;52.80;100767.44;3143941;28;20052;-65
2022/10/07 01:03:58;;;;;;;9.68;5.05;;;;;;;12.42;52.88;100762.63;3144198;28;20102;-64
2022/10/07 01:05:32;;;;;;;14.82;5.07;;;;;;;12.30;53.60;100763.06;3144027;28;20148;-63
2022/10/07 01:07:04;;;;;;;16.60;5.85;;;;;;;12.17;53.57;100754.84;3144270;28;20056;-63
2022/10/07 01:08:35;;;;;;;16.50;5.68;;;;;;;12.11;53.94;100757.69;3143809;28;20105;-63
2022/10/07 01:10:10;;;;;;;19.30;5.60;;;;;;;12.06;53.60;100756.97;3143826;28;20044;-64
2022/10/07 01:11:51;;;;;;;14.07;5.40;;;;;;;12.04;53.56;100757.06;3144131;28;20548;-63
2022/10/07 01:13:31;;;;;;;11.90;4.93;;;;;;;11.93;53.61;100738.31;3144029;28;20056;-63
2022/10/07 01:15:11;;;;;;;14.90;5.70;;;;;;;11.99;53.89;100751.13;3143834;28;20049;-65
2022/10/07 01:16:52;;;;;;;15.13;6.10;;;;;;;11.91;54.47;100755.78;3133953;28;20065;-64
2022/10/07 01:18:29;;;;;;;14.38;5.97;;;;;;;11.86;54.53;100756.84;3143466;28;20048;-64
2022/10/07 01:20:14;;;;;;;15.93;5.70;;;;;;;11.81;54.51;100754.38;3143121;28;20059;-64
2022/10/07 01:21:59;;;;;;;16.48;6.22;;;;;;;11.74;54.72;100760.69;3144217;28;20143;-64
2022/10/07 01:24:02;;;;;;;13.40;5.68;;;;;;;11.70;55.13;100753.88;3144165;28;20487;-64
2022/10/07 01:25:51;;;;;;;19.15;5.80;;;;;;;11.66;55.14;100749.69;3144160;28;20103;-64
2022/10/07 01:27:27;;;;;;;14.27;5.93;;;;;;;11.64;54.90;100751.50;3143834;28;20121;-64
2022/10/07 01:29:02;;;;;;;16.35;6.13;;;;;;;11.65;55.32;100753.19;3143953;28;20409;-64
2022/10/07 01:30:39;;;;;;;18.83;5.80;;;;;;;11.65;54.96;100753.19;3143541;28;20056;-64
2022/10/07 01:32:17;;;;;;;15.35;5.75;;;;;;;11.65;54.95;100751.41;3137242;28;20052;-65
2022/10/07 01:33:50;;;;;;;14.63;5.78;;;;;;;11.68;54.78;100755.69;3144044;28;20056;-64
2022/10/07 01:35:24;;;;;;;;;;;;;;;11.66;54.77;100754.91;3144170;28;20041;-64
2022/10/07 01:37:00;;;;;;;14.40;5.85;;;;;;;11.67;54.92;100751.38;3144760;28;19925;-64
2022/10/07 01:38:34;;;;;;;18.35;5.95;;;;;;;11.69;54.66;100754.81;3146264;28;20048;-64
2022/10/07 01:40:12;;;;;;;15.93;6.32;;;;;;;11.72;54.69;100749.47;3146338;28;20049;-65
2022/10/07 01:41:43;;;;;;;10.80;5.80;;;;;;;11.69;55.01;100747.81;3145886;28;20159;-64
2022/10/07 01:43:21;;;;;;;12.40;5.78;;;;;;;11.68;55.03;100740.03;3145794;28;20052;-64
2022/10/07 01:44:56;;;;;;;14.23;5.30;;;;;;;11.67;55.22;100736.56;3146421;28;20079;-64
2022/10/07 01:46:29;;;;;;;15.32;4.75;;;;;;;11.61;55.29;100729.81;3146274;28;20100;-64
2022/10/07 01:48:02;;;;;;;9.90;5.05;;;;;;;11.69;54.96;100733.94;3146180;28;20603;-64
2022/10/07 01:49:34;;;;;;;12.63;5.32;;;;;;;11.70;55.12;100741.69;3146005;28;20060;-63
2022/10/07 01:51:08;;;;;;;13.13;5.60;;;;;;;11.72;55.03;100742.50;3146053;28;20063;-64
2022/10/07 01:52:54;;;;;;;11.70;5.90;;;;;;;11.74;54.96;100738.09;3146140;28;20133;-64
2022/10/07 01:54:40;;;;;;;8.80;4.70;;;;;;;11.69;55.31;100740.00;3145647;28;20083;-64
2022/10/07 01:56:29;;;;;;;9.82;4.78;;;;;;;11.67;55.16;100741.78;3145743;28;20413;-64
2022/10/07 01:58:16;;;;;;;10.15;5.05;;;;;;;11.66;55.10;100741.88;3145890;28;20056;-64
2022/10/07 02:00:06;;;;;;;16.73;4.88;;;;;;;11.67;55.40;100746.16;3146069;28;20052;-65
2022/10/07 02:01:45;;;;;;;15.50;5.20;;;;;;;11.63;55.54;100745.44;3145845;28;20061;-64
2022/10/07 02:03:54;;;;;;;11.10;4.22;;;;;;;11.68;55.11;100747.88;3145617;28;20044;-64
2022/10/07 02:05:37;;;;;;;11.32;4.90;;;;;;;11.66;55.38;100742.72;3144667;28;20536;-64
2022/10/07 02:07:24;;;;;;;17.48;5.18;;;;;;;11.69;55.14;100742.59;3146036;28;20064;-64
2022/10/07 02:09:00;;;;;;;10.82;4.70;;;;;;;11.72;55.24;100746.88;3145853;28;20530;-65
2022/10/07 02:10:38;;;;;;;10.60;5.72;;;;;;;11.75;55.00;100746.75;3145746;28;20094;-63
2022/10/07 02:12:18;;;;;;;13.10;5.05;;;;;;;11.78;54.78;100738.81;3145843;28;20410;-63
2022/10/07 02:13:59;;;;;;;9.50;4.60;;;;;;;11.81;54.94;100741.31;3145668;28;20139;-63
2022/10/07 02:15:38;;;;;;;9.63;4.43;;;;;;;11.82;54.71;100735.19;3135619;28;20057;-64
2022/10/07 02:17:16;;;;;;;8.02;4.22;;;;;;;11.83;55.05;100736.88;3139295;28;20132;-64
2022/10/07 02:18:52;;;;;;;12.77;5.07;;;;;;;11.86;54.99;100731.63;3145783;28;20418;-64
2022/10/07 02:20:27;;;;;;;9.80;4.72;;;;;;;11.87;54.56;100732.47;3145686;28;20238;-64
2022/10/07 02:22:02;;;;;;;11.82;4.68;;;;;;;11.87;54.80;100730.69;3146174;28;20044;-65
2022/10/07 02:23:37;;;;;;;9.40;4.40;;;;;;;11.86;54.60;100731.63;3145504;28;20168;-64
2022/10/07 02:25:11;;;;;;;17.02;4.72;;;;;;;11.84;54.63;100741.22;3145692;28;20049;-64
2022/10/07 02:26:45;;;;;;;11.43;5.18;;;;;;;11.83;54.85;100737.75;3145600;28;20523;-63
2022/10/07 02:28:20;;;;;;;9.43;4.60;;;;;;;11.82;54.77;100736.03;3145715;28;20530;-64
2022/10/07 02:29:57;;;;;;;9.25;4.35;;;;;;;11.82;54.90;100738.66;3145963;28;20048;-63
2022/10/07 02:31:33;;;;;;;9.18;4.20;;;;;;;11.82;54.69;100737.81;3145374;28;20079;-63
2022/10/07 02:33:10;;;;;;;9.02;4.38;;;;;;;11.81;54.96;100738.72;3145547;28;20049;-63
2022/10/07 02:34:44;;;;;;;6.97;4.03;;;;;;;11.82;54.64;100729.97;3145731;28;20064;-64
2022/10/07 02:36:24;;;;;;;9.18;4.43;;;;;;;11.83;54.77;100729.06;3145064;28;20468;-63
2022/10/07 02:38:00;;;;;;;9.40;4.20;;;;;;;11.75;54.77;100729.34;3145664;28;20098;-63
2022/10/07 02:39:32;;;;;;;9.00;4.30;;;;;;;11.83;54.69;100729.06;3145256;28;20139;-64
2022/10/07 02:41:07;;;;;;;11.10;3.97;;;;;;;11.85;54.58;100732.50;3145577;28;20075;-64
2022/10/07 02:42:47;;;;;;;8.50;4.22;;;;;;;11.85;54.52;100724.66;3145631;28;20055;-64
2022/10/07 02:44:28;;;;;;;7.93;4.25;;;;;;;11.80;54.63;100716.13;3145145;28;20068;-64
2022/10/07 02:46:07;;;;;;;9.02;4.13;;;;;;;11.87;54.52;100730.69;3145381;28;20036;-64
2022/10/07 02:47:45;;;;;;;11.05;4.03;;;;;;;11.87;54.32;100725.47;3145284;28;20082;-64
2022/10/07 02:49:23;;;;;;;11.35;4.32;;;;;;;11.89;54.62;100728.91;3144761;28;20045;-64
2022/10/07 02:50:59;;;;;;;7.57;3.58;;;;;;;11.89;54.42;100726.28;3145273;28;20083;-64
2022/10/07 02:52:33;;;;;;;8.38;3.72;;;;;;;11.89;54.28;100736.72;3145515;28;20056;-64
2022/10/07 02:54:05;;;;;;;8.73;3.65;;;;;;;11.90;54.44;100733.19;3141722;28;20060;-65
2022/10/07 02:55:37;;;;;;;9.30;3.50;;;;;;;11.90;54.03;100735.81;3145584;28;20211;-64
2022/10/07 02:57:11;;;;;;;8.73;3.58;;;;;;;11.91;54.01;100734.03;3145124;28;20139;-64
2022/10/07 02:58:46;;;;;;;11.20;2.90;;;;;;;11.88;54.05;100728.94;3144936;28;20053;-65
2022/10/07 03:00:19;;;;;;;6.38;3.53;;;;;;;11.92;54.26;100739.22;3145285;28;20049;-64
2022/10/07 03:01:56;;;;;;;9.90;3.03;;;;;;;11.91;54.09;100729.66;3145684;28;20057;-64
2022/10/07 03:03:30;;;;;;;6.50;3.13;;;;;;;11.91;54.01;100747.94;3144983;28;20076;-64
2022/10/07 03:05:01;;;;;;;12.93;3.20;;;;;;;11.88;53.62;100739.38;3145209;28;20127;-64
2022/10/07 03:06:35;;;;;;;7.57;2.40;;;;;;;11.86;53.61;100744.66;3144327;28;20059;-64
2022/10/07 03:08:09;;;;;;;9.15;2.60;;;;;;;11.86;53.51;100746.41;3145113;28;20048;-63
2022/10/07 03:09:42;;;;;;;7.93;2.33;;;;;;;11.84;53.29;100741.22;3145170;28;20113;-63
2022/10/07 03:11:14;;;;;;;8.65;2.83;;;;;;;11.81;53.29;100743.94;3144906;28;20057;-63
2022/10/07 03:12:45;;;;;;;5.78;2.47;;;;;;;11.79;53.53;100746.59;3145073;28;20082;-63
2022/10/07 03:14:17;;;;;;;6.10;2.78;;;;;;;11.79;53.56;100750.94;3145110;28;20048;-63
2022/10/07 03:15:49;;;;;;;12.13;3.63;;;;;;;11.77;53.37;100752.75;3138805;28;20055;-63
2022/10/07 03:17:20;;;;;;;4.60;2.28;;;;;;;11.78;53.45;100759.69;3139995;28;20556;-63
2022/10/07 03:18:53;;;;;;;8.52;2.80;;;;;;;11.77;53.58;100760.59;3144690;28;20510;-63
2022/10/07 03:20:25;;;;;;;10.05;2.70;;;;;;;11.77;53.42;100758.84;3145328;28;20053;-63
2022/10/07 03:21:56;;;;;;;8.38;2.80;;;;;;;11.77;53.42;100763.19;3145105;28;20052;-63
2022/10/07 03:23:29;;;;;;;6.07;2.72;;;;;;;11.78;53.14;100767.53;3144314;28;20044;-64
2022/10/07 03:25:00;;;;;;;5.65;2.33;;;;;;;11.80;53.55;100765.69;3144941;28;20126;-63
2022/10/07 03:26:34;;;;;;;4.18;2.20;;;;;;;11.80;53.49;100760.47;3145122;28;20045;-63
2022/10/07 03:28:06;;;;;;;7.63;2.78;;;;;;;11.78;53.27;100755.31;3144563;28;20048;-63
2022/10/07 03:29:38;;;;;;;11.40;2.50;;;;;;;11.78;53.11;100762.31;3145181;28;20113;-63
2022/10/07 03:31:12;;;;;;;4.13;2.47;;;;;;;11.79;53.13;100750.94;3144677;28;20049;-64
2022/10/07 03:32:44;;;;;;;4.63;2.45;;;;;;;11.78;53.43;100752.72;3144909;28;20139;-64
2022/10/07 03:34:18;;;;;;;5.20;2.40;;;;;;;11.75;53.20;100738.94;3144716;28;20503;-64
2022/10/07 03:35:50;;;;;;;;;;;;;;;11.73;53.25;100748.56;3145110;28;20094;-64
2022/10/07 03:37:22;;;;;;;4.20;1.90;;;;;;;11.74;53.02;100747.66;3144821;28;19994;-64
2022/10/07 03:38:54;;;;;;;7.20;3.10;;;;;;;11.74;53.33;100750.25;3145127;28;20044;-64
2022/10/07 03:40:25;;;;;;;7.35;3.05;;;;;;;11.75;53.12;100757.19;3144546;28;20422;-63
2022/10/07 03:41:57;;;;;;;9.85;2.42;;;;;;;11.76;53.49;100764.97;3145126;28;20052;-64
2022/10/07 03:43:28;;;;;;;7.53;3.40;;;;;;;11.76;53.42;100756.28;3144990;28;20053;-64
2022/10/07 03:45:00;;;;;;;9.25;2.38;;;;;;;11.75;53.13;100751.97;3144454;28;20045;-64
2022/10/07 03:46:31;;;;;;;5.15;3.05;;;;;;;11.74;53.34;100752.88;3144578;28;20048;-64
2022/10/07 03:48:03;;;;;;;7.78;2.40;;;;;;;11.73;53.07;100756.38;3144799;28;20157;-64
2022/10/07 03:49:38;;;;;;;6.18;3.13;;;;;;;11.73;53.08;100759.00;3144748;28;20053;-63
2022/10/07 03:51:10;;;;;;;7.03;2.72;;;;;;;11.71;53.40;100753.84;3144520;28;20056;-64
2022/10/07 03:52:44;;;;;;;6.28;2.45;;;;;;;11.68;53.12;100748.72;3144435;28;20044;-63
2022/10/07 03:54:16;;;;;;;5.60;2.60;;;;;;;11.69;53.35;100750.44;3144827;28;20135;-63
2022/10/07 03:55:48;;;;;;;8.02;2.70;;;;;;;11.68;53.51;100750.47;3144685;28;20477;-63
2022/10/07 03:59:10;;;;;;;7.57;2.60;;;;;;;11.69;53.09;100752.19;3144533;28;20048;-63
2022/10/07 04:00:42;;;;;;;4.65;2.38;;;;;;;11.68;53.24;100758.28;3138803;28;20063;-64
2022/10/07 04:02:13;;;;;;;14.75;3.33;;;;;;;11.66;53.44;100750.53;3140352;28;20049;-64
2022/10/07 04:03:46;;;;;;;9.88;2.65;;;;;;;11.65;53.17;100751.41;3143515;28;20044;-64
2022/10/07 04:05:20;;;;;;;5.75;2.70;;;;;;;11.65;53.10;100754.03;3144522;28;20045;-63
2022/10/07 04:06:52;;;;;;;6.22;2.72;;;;;;;11.64;53.35;100756.72;3144578;28;20652;-63
2022/10/07 04:08:26;;;;;;;3.75;1.92;;;;;;;11.64;53.20;100761.94;3144603;28;20048;-64
2022/10/07 04:09:58;;;;;;;13.35;2.60;;;;;;;11.59;53.43;100765.56;3144630;28;20059;-64
2022/10/07 04:11:30;;;;;;;9.15;2.47;;;;;;;11.57;53.40;100756.91;3144488;28;20048;-64
2022/10/07 04:13:01;;;;;;;7.93;2.78;;;;;;;11.53;53.65;100760.53;3144201;28;20052;-64
2022/10/07 04:14:33;;;;;;;20.35;2.65;;;;;;;11.47;53.66;100763.34;3144683;28;20445;-64
2022/10/07 04:16:07;;;;;;;9.15;2.63;;;;;;;11.44;53.49;100765.19;3144235;28;20048;-64
2022/10/07 04:17:39;;;;;;;8.15;2.58;;;;;;;11.42;53.51;100760.06;3144548;28;20079;-64
2022/10/07 04:19:12;;;;;;;6.32;2.67;;;;;;;11.41;53.93;100760.94;3144339;28;20421;-64
2022/10/07 04:20:45;;;;;;;9.02;2.67;;;;;;;11.39;53.70;100762.75;3144533;28;20140;-65
2022/10/07 04:22:17;;;;;;;11.20;3.38;;;;;;;11.37;53.70;100761.94;3144373;28;20078;-65
2022/10/07 04:23:49;;;;;;;6.65;3.15;;;;;;;11.25;54.20;100765.81;3144586;28;20049;-65
2022/10/07 04:25:37;;;;;;;11.85;3.08;;;;;;;11.22;54.35;100765.06;3144023;28;20048;-65
2022/10/07 04:27:09;;;;;;;12.25;3.53;;;;;;;11.14;54.58;100767.91;3144667;28;20239;-64
2022/10/07 04:28:41;;;;;;;9.07;3.08;;;;;;;11.15;54.39;100761.78;3144181;28;20169;-65
2022/10/07 04:30:12;;;;;;;9.27;2.90;;;;;;;11.16;54.56;100768.72;3144024;28;20481;-65
2022/10/07 04:31:44;;;;;;;7.25;3.03;;;;;;;11.15;54.61;100765.25;3144038;28;20496;-65
2022/10/07 04:33:17;;;;;;;9.85;3.00;;;;;;;11.11;54.66;100763.63;3132181;28;20057;-65
2022/10/07 04:34:50;;;;;;;8.35;3.20;;;;;;;11.06;54.57;100765.56;3142964;28;20122;-64
2022/10/07 04:36:24;;;;;;;8.20;2.83;;;;;;;11.04;54.92;100772.56;3144134;28;20090;-65
2022/10/07 04:37:55;;;;;;;9.25;3.10;;;;;;;10.98;55.09;100767.56;3144346;28;20052;-63
2022/10/07 04:39:27;;;;;;;7.85;2.88;;;;;;;10.97;54.91;100770.19;3144100;28;20498;-64
2022/10/07 04:41:02;;;;;;;8.68;3.13;;;;;;;10.97;55.23;100773.66;3143764;28;20115;-63
2022/10/07 04:44:23;;;;;;;7.05;2.88;;;;;;;10.97;55.05;100771.03;3143995;28;20044;-63
2022/10/07 04:46:02;;;;;;;8.10;2.72;;;;;;;10.96;54.95;100764.13;3144451;28;20040;-63
2022/10/07 04:47:34;;;;;;;8.95;2.95;;;;;;;11.00;54.79;100772.69;3144021;28;20103;-63
2022/10/07 04:49:06;;;;;;;11.23;2.85;;;;;;;11.01;55.19;100771.81;3143902;28;20056;-62
2022/10/07 04:50:37;;;;;;;7.97;3.88;;;;;;;10.99;55.00;100771.84;3143921;28;20088;-63
2022/10/07 04:52:10;;;;;;;8.55;2.97;;;;;;;11.04;55.19;100779.53;3144339;28;20052;-63
2022/10/07 04:53:42;;;;;;;6.50;3.28;;;;;;;11.02;54.93;100769.16;3144350;28;20068;-63
2022/10/07 04:55:13;;;;;;;12.48;3.85;;;;;;;11.03;54.90;100770.88;3143883;28;20056;-63
2022/10/07 04:56:48;;;;;;;9.13;3.35;;;;;;;11.03;54.80;100776.09;3142651;28;20521;-64
2022/10/07 04:58:20;;;;;;;12.68;2.80;;;;;;;11.02;54.91;100778.72;3141933;28;20106;-64
2022/10/07 04:59:52;;;;;;;8.90;3.38;;;;;;;11.02;54.85;100779.56;3144293;28;20440;-64
2022/10/07 05:01:24;;;;;;;11.32;3.13;;;;;;;11.02;54.92;100781.34;3143651;28;20048;-64
2022/10/07 05:02:56;;;;;;;14.93;3.55;;;;;;;11.02;54.81;100776.97;3144175;28;20064;-63
2022/10/07 05:04:28;;;;;;;9.25;3.20;;;;;;;11.02;54.76;100782.19;3144250;28;20052;-64
2022/10/07 05:06:03;;;;;;;7.70;3.10;;;;;;;11.01;54.97;100777.88;3143932;28;20047;-63
2022/10/07 05:07:35;;;;;;;12.02;3.33;;;;;;;11.02;54.95;100789.16;3143745;28;20090;-64
2022/10/07 05:09:06;;;;;;;7.53;3.05;;;;;;;11.03;54.82;100786.50;3144054;28;20110;-65
2022/10/07 05:10:38;;;;;;;8.60;3.50;;;;;;;11.03;54.61;100791.72;3144039;28;20048;-64
2022/10/07 05:12:10;;;;;;;14.50;3.22;;;;;;;11.05;54.62;100786.44;3144752;28;20063;-64
2022/10/07 05:13:42;;;;;;;10.23;3.22;;;;;;;11.04;54.47;100787.38;3146587;28;20045;-64
2022/10/07 05:15:13;;;;;;;15.07;3.60;;;;;;;11.04;54.63;100784.75;3146061;28;20585;-64
2022/10/07 05:16:47;;;;;;;15.25;4.30;;;;;;;11.04;54.76;100785.59;3146182;28;20049;-63
2022/10/07 05:18:19;;;;;;;10.75;3.72;;;;;;;11.04;54.61;100789.97;3146595;28;20075;-64
2022/10/07 05:19:51;;;;;;;11.70;3.22;;;;;;;11.02;54.76;100792.59;3146689;28;20056;-64
2022/10/07 05:21:23;;;;;;;12.02;3.70;;;;;;;11.06;54.58;100798.56;3146343;28;20064;-64
2022/10/07 05:22:55;;;;;;;11.52;3.45;;;;;;;11.08;54.67;100802.00;3146506;28;20068;-64
2022/10/07 05:24:27;;;;;;;10.95;3.17;;;;;;;11.09;54.70;100801.97;3146354;28;20057;-64
2022/10/07 05:26:03;;;;;;;14.52;3.65;;;;;;;11.10;54.75;100808.88;3146256;28;20626;-64
2022/10/07 05:27:34;;;;;;;15.88;3.90;;;;;;;11.11;54.34;100804.50;3145890;28;20049;-63
2022/10/07 05:29:06;;;;;;;15.23;4.63;;;;;;;11.13;54.37;100805.31;3145886;28;20066;-63
2022/10/07 05:30:38;;;;;;;13.55;4.50;;;;;;;11.14;54.51;100805.25;3145619;28;20049;-63
2022/10/07 05:32:10;;;;;;;19.02;4.35;;;;;;;11.14;54.58;100807.84;3146028;28;20060;-65
2022/10/07 05:33:42;;;;;;;11.43;4.00;;;;;;;11.18;54.65;100811.25;3146137;28;20045;-65
2022/10/07 05:35:14;;;;;;;17.25;4.68;;;;;;;11.20;54.54;100805.97;3145836;28;20084;-64
2022/10/07 05:36:46;;;;;;;11.13;3.70;;;;;;;11.22;54.67;100806.78;3146002;28;20056;-65
2022/10/07 05:38:20;;;;;;;14.52;3.53;;;;;;;11.21;54.44;100810.28;3145694;28;20132;-65
2022/10/07 05:39:52;;;;;;;9.30;3.72;;;;;;;11.24;54.73;100810.16;3146284;28;20106;-65
2022/10/07 05:41:23;;;;;;;13.45;3.65;;;;;;;11.22;54.66;100806.78;3145955;28;20044;-64
2022/10/07 05:42:55;;;;;;;15.02;4.63;;;;;;;11.26;54.79;100806.63;3145752;28;20044;-64
2022/10/07 05:44:29;;;;;;;12.35;3.70;;;;;;;11.26;54.84;100809.22;3145982;28;20049;-64
2022/10/07 05:46:04;;;;;;;12.25;4.10;;;;;;;11.27;54.59;100813.56;3141828;28;20048;-65
2022/10/07 05:47:36;;;;;;;11.48;3.15;;;;;;;11.29;54.49;100814.34;3141629;28;20052;-64
2022/10/07 05:49:08;;;;;;;11.00;3.33;;;;;;;11.34;54.88;100814.22;3145776;28;20048;-65
2022/10/07 05:50:40;;;;;;;13.25;4.13;;;;;;;11.35;54.94;100816.75;3145321;28;20055;-63
2022/10/07 05:52:12;;;;;;;14.60;3.78;;;;;;;11.41;54.69;100809.63;3145673;28;20048;-63
2022/10/07 05:53:45;;;;;;;12.90;4.13;;;;;;;11.43;54.83;100813.91;3145540;28;20118;-63
2022/10/07 05:55:17;;;;;;;18.00;3.63;;;;;;;11.47;54.95;100815.50;3145220;28;20097;-62
2022/10/07 05:56:49;;;;;;;11.77;3.60;;;;;;;11.51;54.88;100811.91;3146026;28;20094;-62
2022/10/07 05:58:22;;;;;;;9.68;3.70;;;;;;;11.58;54.59;100813.41;3144586;28;20068;-61
2022/10/07 05:59:55;;;;;;;16.83;3.95;;;;;;;11.64;54.60;100809.75;3145324;28;20351;-64
2022/10/07 06:01:27;;;;;;;11.45;3.88;;;;;;;11.73;54.74;100808.56;3145299;28;20060;-64
2022/10/07 06:03:00;;;;;;;15.60;3.22;;;;;;;11.82;54.56;100810.88;3145528;28;20083;-62
2022/10/07 06:04:32;;;;;;;11.55;3.72;;;;;;;11.92;54.48;100804.47;3145491;28;20044;-62
2022/10/07 06:06:04;;;;;;;9.13;3.30;;;;;;;12.02;54.20;100808.47;3145565;28;20045;-61
2022/10/07 06:07:36;;;;;;;7.60;2.88;;;;;;;12.12;54.18;100806.38;3145091;28;20054;-64
2022/10/07 06:13:08;;;;;;;;;;;;;;;12.53;53.31;100817.09;3108978;28;20575;-64
2022/10/07 06:14:40;;;;;;;10.10;3.10;;;;;;;12.68;53.39;100816.50;3145439;28;19975;-65
2022/10/07 06:16:12;;;;;;;11.85;2.97;;;;;;;12.85;53.10;100813.25;3145531;28;20040;-65
2022/10/07 06:17:45;;;;;;;5.57;3.05;;;;;;;13.02;52.65;100817.00;3145550;28;20071;-66
2022/10/07 06:19:21;;;;;;;4.35;2.38;;;;;;;13.21;52.38;100810.13;3147583;28;20048;-65
2022/10/07 06:20:54;;;;;;;10.57;2.42;;;;;;;13.42;52.08;100809.28;3145481;28;20048;-66
2022/10/07 06:22:26;;;;;;;10.70;2.40;;;;;;;13.68;52.16;100809.97;3145055;28;20155;-64
2022/10/07 06:23:58;;;;;;;8.10;2.45;;;;;;;13.94;52.04;100802.78;3145890;28;20048;-64
2022/10/07 06:25:32;;;;;;;9.13;2.90;;;;;;;14.22;51.24;100802.41;3145654;28;20052;-65
2022/10/07 06:27:04;;;;;;;8.43;2.20;;;;;;;14.47;50.63;100800.41;3145147;28;20311;-65
2022/10/07 06:28:37;;;;;;;4.50;1.80;;;;;;;14.73;49.88;100796.63;3144762;28;20056;-60
2022/10/07 06:30:09;;;;;;;;;;;;;;;15.04;50.07;100799.56;3146076;28;20048;-62
2022/10/07 06:31:41;;;;;;;8.32;2.53;;;;;;;15.30;49.35;100800.94;3139751;28;19924;-63
2022/10/07 06:33:13;;;;;;;12.30;2.65;;;;;;;15.55;48.27;100801.41;3145318;28;20094;-63
2022/10/07 06:34:44;;;;;;;13.27;2.42;;;;;;;15.83;47.84;100805.34;3145306;28;20426;-63
2022/10/07 06:36:17;;;;;;;12.82;2.50;;;;;;;16.09;47.39;100799.59;3145347;28;20469;-61
2022/10/07 06:37:49;;;;;;;11.05;2.78;;;;;;;16.39;46.53;100796.25;3145246;28;20052;-62
2022/10/07 06:39:20;;;;;;;10.32;2.45;;;;;;;16.72;46.18;100798.84;3145394;28;20052;-62
2022/10/07 06:40:57;;;;;;;17.00;1.90;;;;;;;16.99;45.26;100799.13;3145060;28;20052;-61
2022/10/07 06:42:29;;;;;;;6.88;2.53;;;;;;;17.18;44.02;100795.44;3144605;28;20063;-61
2022/10/07 06:44:01;;;;;;;14.13;2.95;;;;;;;17.39;43.59;100788.97;3145331;28;20064;-68
2022/10/07 06:45:33;;;;;;;7.95;2.63;;;;;;;17.64;43.12;100793.66;3144213;28;20049;-62
2022/10/07 06:47:05;;;;;;;12.88;3.50;;;;;;;17.93;42.69;100796.38;3145407;28;20582;-65
2022/10/07 06:48:40;;;;;;;9.57;3.05;;;;;;;18.12;42.37;100793.47;3144938;28;20433;-65
2022/10/07 06:50:12;;;;;;;8.13;3.97;;;;;;;18.24;41.83;100791.88;3144988;28;20049;-64
2022/10/07 06:51:45;;;;;;;12.25;2.80;;;;;;;18.28;41.46;100786.34;3144783;28;20060;-63
2022/10/07 06:53:17;;;;;;;10.85;2.20;;;;;;;18.38;41.19;100794.50;3144887;28;20414;-62
2022/10/07 06:54:49;;;;;;;3.78;2.15;;;;;;;18.52;40.40;100793.66;3144097;28;20059;-64
2022/10/07 06:56:22;;;;;;;10.50;2.42;;;;;;;18.84;39.88;100794.28;3144019;28;20044;-62
2022/10/07 06:57:54;;;;;;;10.18;2.25;;;;;;;19.17;39.25;100786.00;3144299;28;20106;-63
2022/10/07 06:59:26;;;;;;;7.15;2.35;;;;;;;19.54;38.72;100792.31;3144960;28;20560;-63
2022/10/07 07:00:59;;;;;;;10.85;2.83;;;;;;;19.94;38.15;100794.09;3141711;28;20049;-62
2022/10/07 07:02:32;;;;;;;11.32;2.28;;;;;;;20.27;37.34;100788.28;3144791;28;20445;-61
2022/10/07 07:04:04;;;;;;;9.65;2.65;;;;;;;20.63;36.99;100789.28;3145389;28;20143;-65
2022/10/07 07:05:39;;;;;;;15.13;2.42;;;;;;;20.97;36.26;100789.50;3145297;28;20506;-61
2022/10/07 07:07:11;;;;;;;7.28;2.50;;;;;;;21.29;35.85;100787.13;3144061;28;20480;-70
2022/10/07 07:08:44;;;;;;;7.97;3.03;;;;;;;21.61;35.44;100789.22;3144048;28;20067;-62
2022/10/07 07:10:16;;;;;;;;;;;;;;;21.99;35.32;100795.06;3138978;28;20095;-60
2022/10/07 07:11:48;;;;;;;16.08;2.88;;;;;;;22.29;34.75;100785.72;3140182;28;19925;-61
2022/10/07 07:13:20;;;;;;;10.07;2.10;;;;;;;22.47;33.44;100789.56;3137917;28;20048;-61
2022/10/07 07:14:52;;;;;;;8.02;2.47;;;;;;;22.47;33.57;100786.91;3140618;28;20154;-66
2022/10/07 07:16:24;;;;;;;7.50;3.88;;;;;;;22.30;34.10;100776.78;3135865;28;20056;-64
2022/10/07 07:17:56;;;;;;;17.08;7.43;;;;;;;22.18;34.22;100793.66;3142620;28;20502;-63
2022/10/07 07:19:31;;;;;;;9.57;2.58;;;;;;;22.25;34.23;100782.47;3141006;28;20064;-63
2022/10/07 07:21:03;;;;;;;7.22;2.13;;;;;;;22.47;33.78;100776.28;3137377;28;20051;-62
2022/10/07 07:22:35;;;;;;;10.88;2.40;;;;;;;22.74;33.24;100779.50;3137889;28;20044;-61